sensor_id;sensor_type;location;lat;lon;timestamp;temperature;humidity
75363;DHT22;64122;51.988;5.892;2023-05-15T00:01:09;14.41;68.85
75363;DHT22;64122;51.988;5.892;2023-05-15T00:03:38;14.41;68.78
75363;DHT22;64122;51.988;5.892;2023-05-15T00:06:10;14.38;68.51
75363;DHT22;64122;51.988;5.892;2023-05-15T00:08:39;14.34;68.26
75363;DHT22;64122;51.988;5.892;2023-05-15T00:11:08;14.27;68.26
75363;DHT22;64122;51.988;5.892;2023-05-15T00:13:38;14.25;68.01
75363;DHT22;64122;51.988;5.892;2023-05-15T00:16:07;14.19;68.01
75363;DHT22;64122;51.988;5.892;2023-05-15T00:18:37;14.13;67.96
75363;DHT22;64122;51.988;5.892;2023-05-15T00:21:06;14.09;67.76
75363;DHT22;64122;51.988;5.892;2023-05-15T00:23:37;14.01;67.77
75363;DHT22;64122;51.988;5.892;2023-05-15T00:26:07;13.94;67.73
75363;DHT22;64122;51.988;5.892;2023-05-15T00:28:36;13.84;68.01
75363;DHT22;64122;51.988;5.892;2023-05-15T00:31:05;13.79;68.10
75363;DHT22;64122;51.988;5.892;2023-05-15T00:33:34;13.74;68.07
75363;DHT22;64122;51.988;5.892;2023-05-15T00:36:04;13.67;68.20
75363;DHT22;64122;51.988;5.892;2023-05-15T00:38:33;13.61;68.17
75363;DHT22;64122;51.988;5.892;2023-05-15T00:41:06;13.58;68.02
75363;DHT22;64122;51.988;5.892;2023-05-15T00:43:38;13.55;67.83
75363;DHT22;64122;51.988;5.892;2023-05-15T00:46:08;13.49;67.86
75363;DHT22;64122;51.988;5.892;2023-05-15T00:48:38;13.49;67.75
75363;DHT22;64122;51.988;5.892;2023-05-15T00:51:09;13.47;67.60
75363;DHT22;64122;51.988;5.892;2023-05-15T00:53:38;13.41;67.64
75363;DHT22;64122;51.988;5.892;2023-05-15T00:56:11;13.33;67.32
75363;DHT22;64122;51.988;5.892;2023-05-15T00:58:41;13.31;67.03
75363;DHT22;64122;51.988;5.892;2023-05-15T01:01:11;13.31;66.84
75363;DHT22;64122;51.988;5.892;2023-05-15T01:03:41;13.29;66.56
75363;DHT22;64122;51.988;5.892;2023-05-15T01:06:11;13.29;66.40
75363;DHT22;64122;51.988;5.892;2023-05-15T01:08:42;13.31;66.59
75363;DHT22;64122;51.988;5.892;2023-05-15T01:11:15;13.32;66.83
75363;DHT22;64122;51.988;5.892;2023-05-15T01:13:45;13.31;67.24
75363;DHT22;64122;51.988;5.892;2023-05-15T01:16:14;13.24;67.65
75363;DHT22;64122;51.988;5.892;2023-05-15T01:18:43;13.23;67.87
75363;DHT22;64122;51.988;5.892;2023-05-15T01:21:30;13.19;68.02
75363;DHT22;64122;51.988;5.892;2023-05-15T01:24:22;13.15;68.52
75363;DHT22;64122;51.988;5.892;2023-05-15T01:27:13;13.10;68.91
75363;DHT22;64122;51.988;5.892;2023-05-15T01:29:52;13.09;69.35
75363;DHT22;64122;51.988;5.892;2023-05-15T01:32:26;13.07;69.78
75363;DHT22;64122;51.988;5.892;2023-05-15T01:35:02;13.05;70.01
75363;DHT22;64122;51.988;5.892;2023-05-15T01:37:41;13.00;70.48
75363;DHT22;64122;51.988;5.892;2023-05-15T01:40:13;12.97;70.67
75363;DHT22;64122;51.988;5.892;2023-05-15T01:42:50;12.99;70.55
75363;DHT22;64122;51.988;5.892;2023-05-15T01:45:23;12.99;70.78
75363;DHT22;64122;51.988;5.892;2023-05-15T01:47:55;13.00;70.85
75363;DHT22;64122;51.988;5.892;2023-05-15T01:50:27;12.99;71.09
75363;DHT22;64122;51.988;5.892;2023-05-15T01:53:00;12.95;71.31
75363;DHT22;64122;51.988;5.892;2023-05-15T01:55:31;12.90;71.63
75363;DHT22;64122;51.988;5.892;2023-05-15T01:58:04;12.88;71.76
75363;DHT22;64122;51.988;5.892;2023-05-15T02:00:34;12.88;71.76
75363;DHT22;64122;51.988;5.892;2023-05-15T02:03:04;12.88;71.78
75363;DHT22;64122;51.988;5.892;2023-05-15T02:05:35;12.85;71.89
75363;DHT22;64122;51.988;5.892;2023-05-15T02:08:04;12.87;71.76
75363;DHT22;64122;51.988;5.892;2023-05-15T02:10:34;12.84;72.03
75363;DHT22;64122;51.988;5.892;2023-05-15T02:13:07;12.79;71.95
75363;DHT22;64122;51.988;5.892;2023-05-15T02:15:37;12.79;71.91
75363;DHT22;64122;51.988;5.892;2023-05-15T02:18:06;12.76;72.10
75363;DHT22;64122;51.988;5.892;2023-05-15T02:20:36;12.77;71.96
75363;DHT22;64122;51.988;5.892;2023-05-15T02:23:05;12.73;72.19
75363;DHT22;64122;51.988;5.892;2023-05-15T02:25:40;12.69;72.25
75363;DHT22;64122;51.988;5.892;2023-05-15T02:28:19;12.63;72.64
75363;DHT22;64122;51.988;5.892;2023-05-15T02:30:56;12.63;72.61
75363;DHT22;64122;51.988;5.892;2023-05-15T02:33:33;12.65;72.50
75363;DHT22;64122;51.988;5.892;2023-05-15T02:36:07;12.63;72.57
75363;DHT22;64122;51.988;5.892;2023-05-15T02:38:39;12.61;72.67
75363;DHT22;64122;51.988;5.892;2023-05-15T02:41:09;12.60;72.55
75363;DHT22;64122;51.988;5.892;2023-05-15T02:43:41;12.58;72.62
75363;DHT22;64122;51.988;5.892;2023-05-15T02:46:12;12.58;72.59
75363;DHT22;64122;51.988;5.892;2023-05-15T02:48:43;12.59;72.58
75363;DHT22;64122;51.988;5.892;2023-05-15T02:51:12;12.56;72.71
75363;DHT22;64122;51.988;5.892;2023-05-15T02:53:42;12.55;72.86
75363;DHT22;64122;51.988;5.892;2023-05-15T02:56:12;12.55;72.75
75363;DHT22;64122;51.988;5.892;2023-05-15T02:58:43;12.59;72.55
75363;DHT22;64122;51.988;5.892;2023-05-15T03:01:13;12.63;72.54
75363;DHT22;64122;51.988;5.892;2023-05-15T03:03:42;12.63;72.58
75363;DHT22;64122;51.988;5.892;2023-05-15T03:06:11;12.65;72.54
75363;DHT22;64122;51.988;5.892;2023-05-15T03:08:40;12.69;72.45
75363;DHT22;64122;51.988;5.892;2023-05-15T03:11:09;12.71;72.44
75363;DHT22;64122;51.988;5.892;2023-05-15T03:13:39;12.71;72.54
75363;DHT22;64122;51.988;5.892;2023-05-15T03:16:10;12.70;72.65
75363;DHT22;64122;51.988;5.892;2023-05-15T03:18:40;12.70;72.73
75363;DHT22;64122;51.988;5.892;2023-05-15T03:21:09;12.67;72.63
75363;DHT22;64122;51.988;5.892;2023-05-15T03:23:38;12.67;72.59
75363;DHT22;64122;51.988;5.892;2023-05-15T03:26:07;12.63;72.57
75363;DHT22;64122;51.988;5.892;2023-05-15T03:28:37;12.58;72.63
75363;DHT22;64122;51.988;5.892;2023-05-15T03:31:06;12.58;72.64
75363;DHT22;64122;51.988;5.892;2023-05-15T03:33:38;12.52;72.84
75363;DHT22;64122;51.988;5.892;2023-05-15T03:36:08;12.58;72.93
75363;DHT22;64122;51.988;5.892;2023-05-15T03:38:37;12.69;72.74
75363;DHT22;64122;51.988;5.892;2023-05-15T03:41:09;12.77;72.82
75363;DHT22;64122;51.988;5.892;2023-05-15T03:43:38;12.87;72.74
75363;DHT22;64122;51.988;5.892;2023-05-15T03:46:07;12.90;72.75
75363;DHT22;64122;51.988;5.892;2023-05-15T03:48:42;12.82;72.35
75363;DHT22;64122;51.988;5.892;2023-05-15T03:51:11;12.93;72.58
75363;DHT22;64122;51.988;5.892;2023-05-15T03:53:40;12.99;72.49
75363;DHT22;64122;51.988;5.892;2023-05-15T03:56:10;12.99;72.71
75363;DHT22;64122;51.988;5.892;2023-05-15T03:58:40;13.06;72.75
75363;DHT22;64122;51.988;5.892;2023-05-15T04:01:09;13.12;72.70
75363;DHT22;64122;51.988;5.892;2023-05-15T04:03:38;13.18;72.62
75363;DHT22;64122;51.988;5.892;2023-05-15T04:06:11;13.21;72.58
75363;DHT22;64122;51.988;5.892;2023-05-15T04:08:40;13.27;72.45
75363;DHT22;64122;51.988;5.892;2023-05-15T04:11:09;13.33;72.45
75363;DHT22;64122;51.988;5.892;2023-05-15T04:13:39;13.35;72.38
75363;DHT22;64122;51.988;5.892;2023-05-15T04:16:08;13.39;72.35
75363;DHT22;64122;51.988;5.892;2023-05-15T04:18:37;13.43;72.34
75363;DHT22;64122;51.988;5.892;2023-05-15T04:21:06;13.39;72.42
75363;DHT22;64122;51.988;5.892;2023-05-15T04:23:38;13.36;72.41
75363;DHT22;64122;51.988;5.892;2023-05-15T04:26:08;13.35;72.50
75363;DHT22;64122;51.988;5.892;2023-05-15T04:28:37;13.38;72.55
75363;DHT22;64122;51.988;5.892;2023-05-15T04:31:06;13.44;72.41
75363;DHT22;64122;51.988;5.892;2023-05-15T04:33:35;13.49;72.29
75363;DHT22;64122;51.988;5.892;2023-05-15T04:36:06;13.49;72.25
75363;DHT22;64122;51.988;5.892;2023-05-15T04:38:38;13.54;72.14
75363;DHT22;64122;51.988;5.892;2023-05-15T04:41:07;13.58;72.06
75363;DHT22;64122;51.988;5.892;2023-05-15T04:43:37;13.55;72.20
75363;DHT22;64122;51.988;5.892;2023-05-15T04:46:06;13.65;72.01
75363;DHT22;64122;51.988;5.892;2023-05-15T04:48:35;13.78;71.78
75363;DHT22;64122;51.988;5.892;2023-05-15T04:51:04;13.86;71.48
75363;DHT22;64122;51.988;5.892;2023-05-15T04:53:34;13.84;71.35
75363;DHT22;64122;51.988;5.892;2023-05-15T04:56:06;13.81;71.11
75363;DHT22;64122;51.988;5.892;2023-05-15T04:58:36;13.84;71.22
75363;DHT22;64122;51.988;5.892;2023-05-15T05:01:05;13.88;70.74
75363;DHT22;64122;51.988;5.892;2023-05-15T05:03:34;13.90;70.63
75363;DHT22;64122;51.988;5.892;2023-05-15T05:06:04;13.97;70.52
75363;DHT22;64122;51.988;5.892;2023-05-15T05:08:33;14.06;70.16
75363;DHT22;64122;51.988;5.892;2023-05-15T05:11:04;14.12;69.95
75363;DHT22;64122;51.988;5.892;2023-05-15T05:13:34;14.18;70.05
75363;DHT22;64122;51.988;5.892;2023-05-15T05:16:03;14.27;69.50
75363;DHT22;64122;51.988;5.892;2023-05-15T05:18:33;14.28;68.90
75363;DHT22;64122;51.988;5.892;2023-05-15T05:21:02;14.26;68.71
75363;DHT22;64122;51.988;5.892;2023-05-15T05:23:32;14.30;68.45
75363;DHT22;64122;51.988;5.892;2023-05-15T05:26:01;14.26;68.11
75363;DHT22;64122;51.988;5.892;2023-05-15T05:28:33;14.21;67.75
75363;DHT22;64122;51.988;5.892;2023-05-15T05:31:02;14.20;67.65
75363;DHT22;64122;51.988;5.892;2023-05-15T05:33:32;14.23;67.46
75363;DHT22;64122;51.988;5.892;2023-05-15T05:36:01;14.22;67.38
75363;DHT22;64122;51.988;5.892;2023-05-15T05:38:30;14.29;67.28
75363;DHT22;64122;51.988;5.892;2023-05-15T05:41:00;14.41;66.84
75363;DHT22;64122;51.988;5.892;2023-05-15T05:43:33;14.55;66.36
75363;DHT22;64122;51.988;5.892;2023-05-15T05:46:02;14.62;66.29
75363;DHT22;64122;51.988;5.892;2023-05-15T05:48:31;14.83;65.98
75363;DHT22;64122;51.988;5.892;2023-05-15T05:51:01;14.89;65.60
75363;DHT22;64122;51.988;5.892;2023-05-15T05:53:30;15.00;65.30
75363;DHT22;64122;51.988;5.892;2023-05-15T05:55:59;15.08;65.11
75363;DHT22;64122;51.988;5.892;2023-05-15T05:58:28;15.21;64.75
75363;DHT22;64122;51.988;5.892;2023-05-15T06:01:00;15.27;64.79
75363;DHT22;64122;51.988;5.892;2023-05-15T06:03:31;15.46;64.27
75363;DHT22;64122;51.988;5.892;2023-05-15T06:06:00;15.68;63.91
75363;DHT22;64122;51.988;5.892;2023-05-15T06:08:29;15.86;63.29
75363;DHT22;64122;51.988;5.892;2023-05-15T06:10:58;16.05;62.80
75363;DHT22;64122;51.988;5.892;2023-05-15T06:13:28;16.15;62.27
75363;DHT22;64122;51.988;5.892;2023-05-15T06:16:00;16.20;61.97
75363;DHT22;64122;51.988;5.892;2023-05-15T06:18:29;16.26;62.08
75363;DHT22;64122;51.988;5.892;2023-05-15T06:20:58;16.30;61.63
75363;DHT22;64122;51.988;5.892;2023-05-15T06:23:28;16.21;61.60
75363;DHT22;64122;51.988;5.892;2023-05-15T06:25:57;16.41;61.03
75363;DHT22;64122;51.988;5.892;2023-05-15T06:28:28;18.04;56.48
75363;DHT22;64122;51.988;5.892;2023-05-15T06:31:00;19.39;53.01
75363;DHT22;64122;51.988;5.892;2023-05-15T06:33:29;19.85;51.75
75363;DHT22;64122;51.988;5.892;2023-05-15T06:35:58;19.51;52.35
75363;DHT22;64122;51.988;5.892;2023-05-15T06:38:27;19.09;53.30
75363;DHT22;64122;51.988;5.892;2023-05-15T06:40:56;18.66;54.26
75363;DHT22;64122;51.988;5.892;2023-05-15T06:43:26;18.36;55.01
75363;DHT22;64122;51.988;5.892;2023-05-15T06:45:55;18.21;55.04
75363;DHT22;64122;51.988;5.892;2023-05-15T06:48:27;18.10;55.29
75363;DHT22;64122;51.988;5.892;2023-05-15T06:50:56;17.98;55.11
75363;DHT22;64122;51.988;5.892;2023-05-15T06:53:25;17.72;55.53
75363;DHT22;64122;51.988;5.892;2023-05-15T06:55:54;17.59;55.68
75363;DHT22;64122;51.988;5.892;2023-05-15T06:58:24;17.52;55.42
75363;DHT22;64122;51.988;5.892;2023-05-15T07:00:53;17.53;55.10
75363;DHT22;64122;51.988;5.892;2023-05-15T07:03:23;17.70;54.65
75363;DHT22;64122;51.988;5.892;2023-05-15T07:05:55;18.09;53.78
75363;DHT22;64122;51.988;5.892;2023-05-15T07:08:24;19.01;51.37
75363;DHT22;64122;51.988;5.892;2023-05-15T07:10:53;20.37;48.08
75363;DHT22;64122;51.988;5.892;2023-05-15T07:13:22;22.03;45.16
75363;DHT22;64122;51.988;5.892;2023-05-15T07:15:51;22.81;43.96
75363;DHT22;64122;51.988;5.892;2023-05-15T07:18:21;24.26;40.80
75363;DHT22;64122;51.988;5.892;2023-05-15T07:20:50;26.05;37.63
75363;DHT22;64122;51.988;5.892;2023-05-15T07:23:22;27.80;34.54
75363;DHT22;64122;51.988;5.892;2023-05-15T07:25:54;28.74;32.41
75363;DHT22;64122;51.988;5.892;2023-05-15T07:28:23;28.82;31.76
75363;DHT22;64122;51.988;5.892;2023-05-15T07:30:52;27.63;33.22
75363;DHT22;64122;51.988;5.892;2023-05-15T07:33:21;27.26;33.48
75363;DHT22;64122;51.988;5.892;2023-05-15T07:35:51;27.63;33.19
75363;DHT22;64122;51.988;5.892;2023-05-15T07:38:22;29.15;30.96
75363;DHT22;64122;51.988;5.892;2023-05-15T07:40:52;30.46;28.77
75363;DHT22;64122;51.988;5.892;2023-05-15T07:43:21;30.99;27.88
75363;DHT22;64122;51.988;5.892;2023-05-15T07:45:50;30.62;28.78
75363;DHT22;64122;51.988;5.892;2023-05-15T07:48:19;29.72;29.71
75363;DHT22;64122;51.988;5.892;2023-05-15T07:50:49;28.88;30.99
75363;DHT22;64122;51.988;5.892;2023-05-15T07:53:18;28.59;31.61
75363;DHT22;64122;51.988;5.892;2023-05-15T07:55:50;28.26;31.80
75363;DHT22;64122;51.988;5.892;2023-05-15T07:58:19;28.28;33.41
75363;DHT22;64122;51.988;5.892;2023-05-15T08:00:48;29.01;30.50
75363;DHT22;64122;51.988;5.892;2023-05-15T08:03:18;30.27;28.60
75363;DHT22;64122;51.988;5.892;2023-05-15T08:05:47;31.30;26.30
75363;DHT22;64122;51.988;5.892;2023-05-15T08:08:17;31.86;25.85
75363;DHT22;64122;51.988;5.892;2023-05-15T08:10:46;32.18;24.85
75363;DHT22;64122;51.988;5.892;2023-05-15T08:13:18;32.32;24.43
75363;DHT22;64122;51.988;5.892;2023-05-15T08:15:47;32.25;23.98
75363;DHT22;64122;51.988;5.892;2023-05-15T08:18:16;31.87;24.26
75363;DHT22;64122;51.988;5.892;2023-05-15T08:20:45;32.13;24.32
75363;DHT22;64122;51.988;5.892;2023-05-15T08:23:15;32.38;23.31
75363;DHT22;64122;51.988;5.892;2023-05-15T08:25:44;32.90;23.17
75363;DHT22;64122;51.988;5.892;2023-05-15T08:28:13;33.15;21.57
75363;DHT22;64122;51.988;5.892;2023-05-15T08:30:45;33.37;22.05
75363;DHT22;64122;51.988;5.892;2023-05-15T08:33:14;33.60;21.84
75363;DHT22;64122;51.988;5.892;2023-05-15T08:35:44;33.81;21.03
75363;DHT22;64122;51.988;5.892;2023-05-15T08:38:13;33.59;21.58
75363;DHT22;64122;51.988;5.892;2023-05-15T08:40:45;33.72;21.05
75363;DHT22;64122;51.988;5.892;2023-05-15T08:43:16;33.73;21.01
75363;DHT22;64122;51.988;5.892;2023-05-15T08:45:48;33.44;20.92
75363;DHT22;64122;51.988;5.892;2023-05-15T08:48:18;33.19;21.04
75363;DHT22;64122;51.988;5.892;2023-05-15T08:50:48;33.00;20.76
75363;DHT22;64122;51.988;5.892;2023-05-15T08:53:18;32.99;21.38
75363;DHT22;64122;51.988;5.892;2023-05-15T08:55:47;33.04;21.37
75363;DHT22;64122;51.988;5.892;2023-05-15T08:58:17;33.11;21.99
75363;DHT22;64122;51.988;5.892;2023-05-15T09:00:54;33.07;21.10
75363;DHT22;64122;51.988;5.892;2023-05-15T09:03:25;33.17;20.58
75363;DHT22;64122;51.988;5.892;2023-05-15T09:05:54;33.02;21.76
75363;DHT22;64122;51.988;5.892;2023-05-15T09:08:24;32.08;22.84
75363;DHT22;64122;51.988;5.892;2023-05-15T09:10:54;31.57;24.91
75363;DHT22;64122;51.988;5.892;2023-05-15T09:13:24;31.71;25.59
75363;DHT22;64122;51.988;5.892;2023-05-15T09:15:56;31.97;24.75
75363;DHT22;64122;51.988;5.892;2023-05-15T09:18:25;31.82;24.90
75363;DHT22;64122;51.988;5.892;2023-05-15T09:20:54;32.04;23.43
75363;DHT22;64122;51.988;5.892;2023-05-15T09:23:24;32.39;22.50
75363;DHT22;64122;51.988;5.892;2023-05-15T09:25:54;32.45;22.32
75363;DHT22;64122;51.988;5.892;2023-05-15T09:28:27;32.77;21.97
75363;DHT22;64122;51.988;5.892;2023-05-15T09:30:59;32.44;23.01
75363;DHT22;64122;51.988;5.892;2023-05-15T09:33:31;32.46;22.51
75363;DHT22;64122;51.988;5.892;2023-05-15T09:36:00;31.30;23.14
75363;DHT22;64122;51.988;5.892;2023-05-15T09:38:32;30.12;25.08
75363;DHT22;64122;51.988;5.892;2023-05-15T09:41:02;29.49;25.96
75363;DHT22;64122;51.988;5.892;2023-05-15T09:43:37;28.90;27.03
75363;DHT22;64122;51.988;5.892;2023-05-15T09:46:09;28.35;28.37
75363;DHT22;64122;51.988;5.892;2023-05-15T09:48:41;27.98;28.78
75363;DHT22;64122;51.988;5.892;2023-05-15T09:51:14;27.44;29.46
75363;DHT22;64122;51.988;5.892;2023-05-15T09:53:47;27.01;30.01
75363;DHT22;64122;51.988;5.892;2023-05-15T09:56:18;26.85;30.43
75363;DHT22;64122;51.988;5.892;2023-05-15T09:58:54;26.62;30.45
75363;DHT22;64122;51.988;5.892;2023-05-15T10:01:27;26.28;30.22
75363;DHT22;64122;51.988;5.892;2023-05-15T10:03:57;25.76;31.16
75363;DHT22;64122;51.988;5.892;2023-05-15T10:06:34;25.58;31.74
75363;DHT22;64122;51.988;5.892;2023-05-15T10:09:03;25.47;31.64
75363;DHT22;64122;51.988;5.892;2023-05-15T10:11:34;25.14;32.08
75363;DHT22;64122;51.988;5.892;2023-05-15T10:14:05;24.85;32.67
75363;DHT22;64122;51.988;5.892;2023-05-15T10:16:38;24.46;33.38
75363;DHT22;64122;51.988;5.892;2023-05-15T10:19:09;24.65;32.99
75363;DHT22;64122;51.988;5.892;2023-05-15T10:21:40;24.76;32.86
75363;DHT22;64122;51.988;5.892;2023-05-15T10:24:10;24.43;33.12
75363;DHT22;64122;51.988;5.892;2023-05-15T10:26:41;24.43;32.48
75363;DHT22;64122;51.988;5.892;2023-05-15T10:29:13;24.48;32.50
75363;DHT22;64122;51.988;5.892;2023-05-15T10:31:46;24.60;32.86
75363;DHT22;64122;51.988;5.892;2023-05-15T10:34:17;24.77;32.70
75363;DHT22;64122;51.988;5.892;2023-05-15T10:36:50;24.77;33.31
75363;DHT22;64122;51.988;5.892;2023-05-15T10:39:21;24.50;33.60
75363;DHT22;64122;51.988;5.892;2023-05-15T10:41:55;24.26;34.26
75363;DHT22;64122;51.988;5.892;2023-05-15T10:44:26;24.15;34.02
75363;DHT22;64122;51.988;5.892;2023-05-15T10:47:02;23.91;33.54
75363;DHT22;64122;51.988;5.892;2023-05-15T10:49:34;23.79;32.80
75363;DHT22;64122;51.988;5.892;2023-05-15T10:52:04;23.70;30.90
75363;DHT22;64122;51.988;5.892;2023-05-15T10:54:36;23.52;31.19
75363;DHT22;64122;51.988;5.892;2023-05-15T10:57:07;23.12;32.81
75363;DHT22;64122;51.988;5.892;2023-05-15T10:59:36;22.95;33.37
75363;DHT22;64122;51.988;5.892;2023-05-15T11:02:25;22.93;33.58
75363;DHT22;64122;51.988;5.892;2023-05-15T11:04:57;22.94;33.26
75363;DHT22;64122;51.988;5.892;2023-05-15T11:07:27;22.86;33.79
75363;DHT22;64122;51.988;5.892;2023-05-15T11:09:56;22.87;34.99
75363;DHT22;64122;51.988;5.892;2023-05-15T11:12:54;22.94;35.15
75363;DHT22;64122;51.988;5.892;2023-05-15T11:15:24;22.95;35.71
75363;DHT22;64122;51.988;5.892;2023-05-15T11:18:04;22.86;36.08
75363;DHT22;64122;51.988;5.892;2023-05-15T11:20:38;22.67;37.12
75363;DHT22;64122;51.988;5.892;2023-05-15T11:23:08;22.60;37.75
75363;DHT22;64122;51.988;5.892;2023-05-15T11:25:41;22.58;38.40
75363;DHT22;64122;51.988;5.892;2023-05-15T11:28:20;22.67;38.36
75363;DHT22;64122;51.988;5.892;2023-05-15T11:30:50;22.75;38.55
75363;DHT22;64122;51.988;5.892;2023-05-15T11:33:23;22.63;38.42
75363;DHT22;64122;51.988;5.892;2023-05-15T11:35:58;22.58;38.40
75363;DHT22;64122;51.988;5.892;2023-05-15T11:38:27;22.63;38.56
75363;DHT22;64122;51.988;5.892;2023-05-15T11:40:58;22.63;38.78
75363;DHT22;64122;51.988;5.892;2023-05-15T11:43:29;22.67;38.62
75363;DHT22;64122;51.988;5.892;2023-05-15T11:46:04;22.77;38.82
75363;DHT22;64122;51.988;5.892;2023-05-15T11:48:39;22.77;39.07
75363;DHT22;64122;51.988;5.892;2023-05-15T11:51:18;22.84;38.82
75363;DHT22;64122;51.988;5.892;2023-05-15T11:53:49;22.61;39.58
75363;DHT22;64122;51.988;5.892;2023-05-15T11:56:20;22.49;40.14
75363;DHT22;64122;51.988;5.892;2023-05-15T11:58:50;22.36;40.59
75363;DHT22;64122;51.988;5.892;2023-05-15T12:01:19;22.23;41.12
75363;DHT22;64122;51.988;5.892;2023-05-15T12:03:51;22.24;41.45
75363;DHT22;64122;51.988;5.892;2023-05-15T12:06:21;22.20;41.88
75363;DHT22;64122;51.988;5.892;2023-05-15T12:08:52;22.05;42.44
75363;DHT22;64122;51.988;5.892;2023-05-15T12:11:22;21.89;43.03
75363;DHT22;64122;51.988;5.892;2023-05-15T12:13:52;21.72;43.38
75363;DHT22;64122;51.988;5.892;2023-05-15T12:16:24;21.55;43.26
75363;DHT22;64122;51.988;5.892;2023-05-15T12:18:58;21.38;43.95
75363;DHT22;64122;51.988;5.892;2023-05-15T12:21:29;21.30;44.22
75363;DHT22;64122;51.988;5.892;2023-05-15T12:23:59;21.27;44.37
75363;DHT22;64122;51.988;5.892;2023-05-15T12:26:28;21.27;44.69
75363;DHT22;64122;51.988;5.892;2023-05-15T12:28:58;21.23;44.99
75363;DHT22;64122;51.988;5.892;2023-05-15T12:31:30;21.25;45.11
75363;DHT22;64122;51.988;5.892;2023-05-15T12:34:02;21.36;44.89
75363;DHT22;64122;51.988;5.892;2023-05-15T12:36:31;21.39;44.70
75363;DHT22;64122;51.988;5.892;2023-05-15T12:39:05;21.25;45.20
75363;DHT22;64122;51.988;5.892;2023-05-15T12:41:36;21.22;45.23
75363;DHT22;64122;51.988;5.892;2023-05-15T12:44:06;21.25;45.56
75363;DHT22;64122;51.988;5.892;2023-05-15T12:46:44;21.33;45.63
75363;DHT22;64122;51.988;5.892;2023-05-15T12:49:20;21.50;45.33
75363;DHT22;64122;51.988;5.892;2023-05-15T12:51:49;21.64;45.32
75363;DHT22;64122;51.988;5.892;2023-05-15T12:54:19;21.77;45.38
75363;DHT22;64122;51.988;5.892;2023-05-15T12:56:49;21.87;44.99
75363;DHT22;64122;51.988;5.892;2023-05-15T12:59:18;21.76;45.41
75363;DHT22;64122;51.988;5.892;2023-05-15T13:01:47;21.91;44.75
75363;DHT22;64122;51.988;5.892;2023-05-15T13:04:19;22.05;44.20
75363;DHT22;64122;51.988;5.892;2023-05-15T13:06:48;22.23;44.09
75363;DHT22;64122;51.988;5.892;2023-05-15T13:09:20;22.29;44.06
75363;DHT22;64122;51.988;5.892;2023-05-15T13:11:54;22.26;43.92
75363;DHT22;64122;51.988;5.892;2023-05-15T13:14:23;22.25;43.86
75363;DHT22;64122;51.988;5.892;2023-05-15T13:16:58;22.03;44.29
75363;DHT22;64122;51.988;5.892;2023-05-15T13:19:31;21.95;44.22
75363;DHT22;64122;51.988;5.892;2023-05-15T13:22:00;21.83;44.12
75363;DHT22;64122;51.988;5.892;2023-05-15T13:24:30;21.84;44.33
75363;DHT22;64122;51.988;5.892;2023-05-15T13:26:59;21.75;44.51
75363;DHT22;64122;51.988;5.892;2023-05-15T13:29:28;21.62;44.63
75363;DHT22;64122;51.988;5.892;2023-05-15T13:31:58;21.57;44.88
75363;DHT22;64122;51.988;5.892;2023-05-15T13:34:27;21.57;44.87
75363;DHT22;64122;51.988;5.892;2023-05-15T13:36:59;21.61;44.62
75363;DHT22;64122;51.988;5.892;2023-05-15T13:39:28;21.65;44.80
75363;DHT22;64122;51.988;5.892;2023-05-15T13:41:57;21.77;44.80
75363;DHT22;64122;51.988;5.892;2023-05-15T13:44:27;21.87;44.51
75363;DHT22;64122;51.988;5.892;2023-05-15T13:46:57;21.97;44.48
75363;DHT22;64122;51.988;5.892;2023-05-15T13:49:29;22.01;44.35
75363;DHT22;64122;51.988;5.892;2023-05-15T13:52:01;22.19;43.67
75363;DHT22;64122;51.988;5.892;2023-05-15T13:54:30;22.33;43.42
75363;DHT22;64122;51.988;5.892;2023-05-15T13:56:59;22.56;42.84
75363;DHT22;64122;51.988;5.892;2023-05-15T13:59:29;22.61;42.85
75363;DHT22;64122;51.988;5.892;2023-05-15T14:01:58;22.62;41.95
75363;DHT22;64122;51.988;5.892;2023-05-15T14:04:28;22.60;42.07
75363;DHT22;64122;51.988;5.892;2023-05-15T14:06:57;22.48;42.20
75363;DHT22;64122;51.988;5.892;2023-05-15T14:09:29;22.37;42.54
75363;DHT22;64122;51.988;5.892;2023-05-15T14:11:58;22.37;42.78
75363;DHT22;64122;51.988;5.892;2023-05-15T14:14:28;22.27;42.66
75363;DHT22;64122;51.988;5.892;2023-05-15T14:16:57;22.05;43.08
75363;DHT22;64122;51.988;5.892;2023-05-15T14:19:26;21.89;43.49
75363;DHT22;64122;51.988;5.892;2023-05-15T14:21:56;21.76;43.80
75363;DHT22;64122;51.988;5.892;2023-05-15T14:24:25;21.52;44.35
75363;DHT22;64122;51.988;5.892;2023-05-15T14:26:57;21.25;44.70
75363;DHT22;64122;51.988;5.892;2023-05-15T14:29:26;21.14;44.90
75363;DHT22;64122;51.988;5.892;2023-05-15T14:31:56;21.02;45.15
75363;DHT22;64122;51.988;5.892;2023-05-15T14:34:25;20.94;45.46
75363;DHT22;64122;51.988;5.892;2023-05-15T14:36:55;20.93;45.47
75363;DHT22;64122;51.988;5.892;2023-05-15T14:39:24;20.95;45.11
75363;DHT22;64122;51.988;5.892;2023-05-15T14:41:53;21.13;44.32
75363;DHT22;64122;51.988;5.892;2023-05-15T14:44:25;21.33;44.03
75363;DHT22;64122;51.988;5.892;2023-05-15T14:47:04;21.31;43.84
75363;DHT22;64122;51.988;5.892;2023-05-15T14:49:35;21.01;44.38
75363;DHT22;64122;51.988;5.892;2023-05-15T14:52:06;20.79;44.78
75363;DHT22;64122;51.988;5.892;2023-05-15T14:54:36;20.68;45.09
75363;DHT22;64122;51.988;5.892;2023-05-15T14:57:06;20.55;45.54
75363;DHT22;64122;51.988;5.892;2023-05-15T14:59:38;20.43;46.12
75363;DHT22;64122;51.988;5.892;2023-05-15T15:02:07;20.46;46.28
75363;DHT22;64122;51.988;5.892;2023-05-15T15:04:37;20.47;46.49
75363;DHT22;64122;51.988;5.892;2023-05-15T15:07:09;20.39;46.78
75363;DHT22;64122;51.988;5.892;2023-05-15T15:09:39;20.28;47.15
75363;DHT22;64122;51.988;5.892;2023-05-15T15:12:09;20.12;47.79
75363;DHT22;64122;51.988;5.892;2023-05-15T15:14:40;20.12;48.53
75363;DHT22;64122;51.988;5.892;2023-05-15T15:17:13;20.06;48.94
75363;DHT22;64122;51.988;5.892;2023-05-15T15:19:42;19.89;49.84
75363;DHT22;64122;51.988;5.892;2023-05-15T15:22:11;19.74;50.19
75363;DHT22;64122;51.988;5.892;2023-05-15T15:24:40;19.66;50.33
75363;DHT22;64122;51.988;5.892;2023-05-15T15:27:10;19.71;49.93
75363;DHT22;64122;51.988;5.892;2023-05-15T15:29:41;19.72;49.77
75363;DHT22;64122;51.988;5.892;2023-05-15T15:32:11;19.67;49.48
75363;DHT22;64122;51.988;5.892;2023-05-15T15:34:40;19.65;49.71
75363;DHT22;64122;51.988;5.892;2023-05-15T15:37:10;19.69;49.55
75363;DHT22;64122;51.988;5.892;2023-05-15T15:39:39;19.76;49.57
75363;DHT22;64122;51.988;5.892;2023-05-15T15:42:08;19.81;48.80
75363;DHT22;64122;51.988;5.892;2023-05-15T15:44:40;19.97;48.36
75363;DHT22;64122;51.988;5.892;2023-05-15T15:47:10;19.99;48.08
75363;DHT22;64122;51.988;5.892;2023-05-15T15:49:39;19.80;48.78
75363;DHT22;64122;51.988;5.892;2023-05-15T15:52:09;19.86;48.62